Weather History for Alpine, TX

Change the Weather History Date:

Tuesday, March 11, 2014

  Actual Average (KMRF) Record (KMRF)
Temperature  
Mean Temperature 64 °F -  
Max Temperature 77 °F 64 °F 80 °F (2011)
Min Temperature 51 °F 33 °F 19 °F (2013)
Degree Days  
Heating Degree Days 2    
Growing Degree Days 14 (Base 50)    
Moisture  
Dew Point 28 °F    
Average Humidity 29    
Maximum Humidity 53    
Minimum Humidity 12    
Precipitation  
Precipitation 0.00 in - - ()
Sea Level Pressure  
Sea Level Pressure 29.95 in    
Wind  
Wind Speed 11 mph (WSW)    
Max Wind Speed 25 mph    
Max Gust Speed 33 mph    
Visibility 10 miles    
Events      
Averages and records for this station are not official NWS values.
T = Trace of Precipitation, MM = Missing Value Source: NWS Daily Summary

Daily Weather History Graph

Daily Weather History Graph

Search for Another Location

Airport:

Trip Planner

Search our weather history database for the weather conditions in past years. The results will help you decide how hot, cold, wet, or windy it might be!

Date:

Astronomy

Mar. 11, 2014 Rise Set
Actual Time 8:09 AM CDT 8:00 PM CDT
Civil Twilight 7:45 AM CDT 8:24 PM CDT
Nautical Twilight 7:17 AM CDT 8:52 PM CDT
Astronomical Twilight 6:49 AM CDT 9:20 PM CDT
Moon 3:53 PM CDT (3/11) 4:49 AM CDT (3/11)
Length of Visible Light 12h 39m
Length of Day
11h 51m
Waxing Gibbous, 78% of the Moon is Illuminated
Mar 11
Waxing Gibbous
Mar 16
Full
Mar 23
Last Quarter
Mar 30
New
Apr 7
First Quarter

Hourly Weather History & Observations

Time (CDT) Temp. Dew Point Humidity Pressure Visibility Wind Dir Wind Speed Gust Speed Precip Events Conditions
12:15 AM 55.0 °F 33.8 °F 45% 30.03 in 10.0 mi WSW 9.2 mph - N/A   Clear
12:35 AM 51.8 °F 33.3 °F 49% 30.03 in 10.0 mi SSW 4.6 mph - N/A   Clear
12:55 AM 53.8 °F 33.8 °F 47% 30.02 in 10.0 mi SW 5.8 mph - N/A   Clear
1:15 AM 54.7 °F 34.3 °F 46% 30.00 in 10.0 mi SSW 6.9 mph - N/A   Clear
1:35 AM 56.1 °F 34.5 °F 44% 29.99 in 10.0 mi WSW 6.9 mph - N/A   Clear
1:55 AM 56.3 °F 33.3 °F 42% 29.99 in 10.0 mi West 12.7 mph 16.1 mph N/A   Clear
2:15 AM 56.7 °F 33.8 °F 42% 29.98 in 10.0 mi WSW 10.4 mph 18.4 mph N/A   Clear
2:35 AM 56.7 °F 33.8 °F 42% 29.97 in 10.0 mi WSW 11.5 mph 19.6 mph N/A   Clear
2:55 AM 56.3 °F 33.6 °F 42% 29.97 in 10.0 mi SW 5.8 mph - N/A   Clear
3:15 AM 51.4 °F 34.0 °F 51% 29.97 in 10.0 mi SE 10.4 mph - N/A   Clear
3:35 AM 52.9 °F 34.3 °F 49% 29.96 in 10.0 mi SE 8.1 mph - N/A   Clear
3:55 AM 53.4 °F 34.5 °F 49% 29.96 in 10.0 mi SE 4.6 mph - N/A   Clear
4:15 AM 53.4 °F 34.3 °F 48% 29.95 in 10.0 mi SE 10.4 mph - N/A   Clear
4:35 AM 51.8 °F 34.5 °F 52% 29.94 in 10.0 mi SE 8.1 mph - N/A   Clear
4:55 AM 51.6 °F 34.7 °F 52% 29.94 in 10.0 mi SE 5.8 mph - N/A   Clear
5:15 AM 51.4 °F 34.7 °F 53% 29.93 in 10.0 mi SE 6.9 mph - N/A   Clear
5:35 AM 55.4 °F 35.1 °F 46% 29.93 in 10.0 mi SW 9.2 mph 16.1 mph N/A   Clear
5:55 AM 54.9 °F 35.1 °F 47% 29.92 in 10.0 mi WSW 8.1 mph 19.6 mph N/A   Clear
6:15 AM 54.3 °F 34.9 °F 48% 29.92 in 10.0 mi WSW 5.8 mph - N/A   Clear
6:35 AM 55.0 °F 34.7 °F 46% 29.92 in 10.0 mi West 15.0 mph - N/A   Clear
6:55 AM 56.5 °F 34.2 °F 43% 29.92 in 10.0 mi West 15.0 mph 27.6 mph N/A   Clear
7:15 AM 54.9 °F 34.2 °F 46% 29.92 in 10.0 mi Calm Calm - N/A   Clear
7:35 AM 55.4 °F 34.0 °F 44% 29.92 in 10.0 mi West 11.5 mph 18.4 mph N/A   Clear
7:55 AM 55.4 °F 33.8 °F 44% 29.92 in 10.0 mi West 6.9 mph 18.4 mph N/A   Clear
8:15 AM 55.2 °F 33.6 °F 44% 29.93 in 10.0 mi WNW 5.8 mph - N/A   Clear
8:35 AM 56.1 °F 33.3 °F 42% 29.94 in 10.0 mi West 6.9 mph 16.1 mph N/A   Clear
8:55 AM 57.2 °F 33.1 °F 40% 29.95 in 10.0 mi Calm Calm - N/A   Clear
9:15 AM 58.3 °F 33.3 °F 39% 29.95 in 10.0 mi WSW 9.2 mph - N/A   Clear
9:35 AM 59.5 °F 33.3 °F 37% 29.96 in 10.0 mi West 9.2 mph 19.6 mph N/A   Clear
9:55 AM 60.4 °F 33.1 °F 36% 29.96 in 10.0 mi West 16.1 mph 24.2 mph N/A   Clear
10:15 AM 62.6 °F 32.9 °F 33% 29.96 in 10.0 mi WSW 18.4 mph 26.5 mph N/A   Clear
10:35 AM 64.6 °F 31.8 °F 29% 29.96 in 10.0 mi WSW 18.4 mph 24.2 mph N/A   Clear
10:55 AM 65.5 °F 30.9 °F 27% 29.96 in 10.0 mi West 19.6 mph 28.8 mph N/A   Clear
11:15 AM 67.3 °F 30.2 °F 25% 29.97 in 10.0 mi WSW 16.1 mph 23.0 mph N/A   Clear
11:35 AM 67.6 °F 29.5 °F 24% 29.98 in 10.0 mi WSW 15.0 mph 32.2 mph N/A   Clear
11:55 AM 69.3 °F 28.6 °F 22% 29.97 in 10.0 mi West 20.7 mph 27.6 mph N/A   Clear
12:15 PM 70.2 °F 28.6 °F 21% 29.97 in 10.0 mi West 16.1 mph 27.6 mph N/A   Clear
12:35 PM 70.9 °F 28.6 °F 21% 29.97 in 10.0 mi WNW 15.0 mph 25.3 mph N/A   Clear
12:55 PM 72.1 °F 26.1 °F 18% 29.96 in 10.0 mi West 10.4 mph 24.2 mph N/A   Clear
1:15 PM 73.6 °F 25.2 °F 16% 29.94 in 10.0 mi West 9.2 mph 25.3 mph N/A   Clear
1:35 PM 75.4 °F 25.0 °F 15% 29.93 in 10.0 mi West 24.2 mph 32.2 mph N/A   Clear
1:55 PM 75.4 °F 23.4 °F 14% 29.93 in 10.0 mi West 21.9 mph 29.9 mph N/A   Clear
2:15 PM 75.7 °F 24.4 °F 15% 29.94 in 10.0 mi WNW 17.3 mph 28.8 mph N/A   Clear
2:35 PM 75.9 °F 24.1 °F 15% 29.92 in 10.0 mi West 23.0 mph 28.8 mph N/A   Clear
2:55 PM 75.7 °F 25.2 °F 15% 29.92 in 10.0 mi West 20.7 mph 33.4 mph N/A   Clear
3:15 PM 76.5 °F 24.6 °F 15% 29.91 in 10.0 mi West 23.0 mph 28.8 mph N/A   Clear
3:35 PM 76.3 °F 23.7 °F 14% 29.90 in 10.0 mi West 25.3 mph 33.4 mph N/A   Clear
3:55 PM 76.3 °F 23.9 °F 14% 29.90 in 10.0 mi West 19.6 mph 31.1 mph N/A   Clear
4:15 PM 76.8 °F 23.4 °F 14% 29.89 in 10.0 mi WSW 20.7 mph 29.9 mph N/A   Clear
4:35 PM 76.5 °F 20.7 °F 12% 29.89 in 10.0 mi West 19.6 mph 31.1 mph N/A   Clear
4:55 PM 76.8 °F 20.8 °F 12% 29.89 in 10.0 mi West 20.7 mph 29.9 mph N/A   Clear
5:15 PM 76.6 °F 20.1 °F 12% 29.90 in 10.0 mi West 18.4 mph 26.5 mph N/A   Clear
5:35 PM 76.1 °F 20.1 °F 12% 29.89 in 10.0 mi West 19.6 mph 25.3 mph N/A   Clear
5:55 PM 75.9 °F 19.4 °F 12% 29.90 in 10.0 mi West 16.1 mph 27.6 mph N/A   Clear
6:15 PM 75.7 °F 19.0 °F 12% 29.91 in 10.0 mi West 17.3 mph - N/A   Clear
6:35 PM 74.7 °F 18.3 °F 12% 29.91 in 10.0 mi West 17.3 mph 21.9 mph N/A   Clear
6:55 PM 74.3 °F 17.8 °F 12% 29.92 in 10.0 mi West 17.3 mph 24.2 mph N/A   Clear
7:15 PM 73.2 °F 18.9 °F 13% 29.93 in 10.0 mi West 15.0 mph 21.9 mph N/A   Clear
7:35 PM 71.4 °F 19.2 °F 14% 29.94 in 10.0 mi West 15.0 mph - N/A   Clear
7:55 PM 69.1 °F 20.3 °F 16% 29.95 in 10.0 mi West 13.8 mph - N/A   Clear
8:15 PM 67.3 °F 21.2 °F 17% 29.96 in 10.0 mi West 10.4 mph 17.3 mph N/A   Clear
8:35 PM 64.0 °F 21.2 °F 19% 29.97 in 10.0 mi West 6.9 mph - N/A   Clear
8:55 PM 64.6 °F 22.1 °F 20% 29.98 in 10.0 mi West 9.2 mph - N/A   Clear
9:15 PM 60.3 °F 21.6 °F 23% 29.99 in 10.0 mi WSW 8.1 mph - N/A   Clear
9:35 PM 61.3 °F 22.3 °F 22% 30.00 in 10.0 mi West 9.2 mph - N/A   Clear
9:55 PM 56.7 °F 21.6 °F 26% 30.01 in 10.0 mi West 12.7 mph - N/A   Clear
10:15 PM 57.0 °F 21.6 °F 25% 30.02 in 10.0 mi WSW 5.8 mph - N/A   Clear
10:35 PM 59.4 °F 21.7 °F 23% 30.03 in 10.0 mi SSE 3.5 mph - N/A   Clear
10:55 PM 60.1 °F 21.2 °F 22% 30.03 in 10.0 mi SW 3.5 mph - N/A   Clear
11:15 PM 57.9 °F 20.1 °F 23% 30.04 in 10.0 mi SSW 3.5 mph - N/A   Clear
11:35 PM 59.2 °F 19.8 °F 22% 30.05 in 10.0 mi SW 5.8 mph - N/A   Clear
11:55 PM 59.2 °F 19.0 °F 21% 30.05 in 10.0 mi South 3.5 mph - N/A   Clear